LiveATC.Net - Listen to live air traffic control over the Internet!


ICAO: KMGW  IATA: MGW   Airport: Morgantown Municipal Airport
City: Morgantown   State/Province: West Virginia
Country: United States   Continent: North America
KMGW METAR Weather: KMGW 051853Z 00000KT 10SM FEW050 26/12 A3013 RMK AO2 SLP193 T02610122
KMGW Flight Activity (FlightAware)
KMGW Airport Info   (iFlightPlanner)
KMGW VFR Sectional Chart   (iFlightPlanner) 
KMGW IFR Low Chart   (iFlightPlanner) 

KMGW Ground/Tower
Feed Status: UP   Listeners: 0
Listen in your browser - HTML5 player (in browser, HTML5)
Click here to listen with your own player (launches your MP3 player)
Archive Access: KMGW Ground/Tower
FacilityFrequency
Morgantown Ground121.700
Morgantown Tower125.100

NOTICE

Unauthorized use prohibited. See LiveATC.net Terms of Service


Airport/ARTCC Code
Frequency Search
(e.g., 124.400, 128.75)
Site-wide search
 


Browse Feeds
Top 50 Feeds
Coverage Map
Bad Weather Areas

LiveATC FAQ
Offer LiveATC feed
Contact LiveATC.net
Press Inquiries

LiveATC on iPhone
LiveATC on Android

Windows Phone
Windows 8/10

LiveATC Mobile
(Mobile browser)

ATC Audio Archives
Interesting Recordings

LiveATC Forums


Home Page
About LiveATC.net
Make a Donation
Terms of Use
Privacy Policy

Canadian Air Freqs

AIRMETs/SIGMETs

FAA Airport Status
Nat'l Airspace Status
Arrival Demand Charts


Server Software By:
Icecast.org
Liquidsoap